createdAt,value
2023-01-09T00:01:59.494Z,94.95
2023-01-09T00:04:25.872Z,95.23
2023-01-09T00:06:55.874Z,95.05
2023-01-09T00:09:24.046Z,95.01
2023-01-09T00:11:51.360Z,95.14
2023-01-09T00:14:18.905Z,95.02
2023-01-09T00:16:45.449Z,95.00
2023-01-09T00:19:12.273Z,94.83
2023-01-09T00:21:38.840Z,94.89
2023-01-09T00:24:05.625Z,94.97
2023-01-09T00:26:32.470Z,94.96
2023-01-09T00:28:59.252Z,94.68
2023-01-09T00:31:25.762Z,94.78
2023-01-09T00:33:59.603Z,94.84
2023-01-09T00:36:26.066Z,94.88
2023-01-09T00:38:55.114Z,94.83
2023-01-09T00:41:30.107Z,94.81
2023-01-09T00:44:02.181Z,94.87
2023-01-09T00:46:34.481Z,94.96
2023-01-09T00:49:05.457Z,95.11
2023-01-09T00:51:31.815Z,94.97
2023-01-09T00:53:58.344Z,95.37
2023-01-09T00:56:25.968Z,95.25
2023-01-09T00:58:53.480Z,95.29
2023-01-09T01:01:20.083Z,95.21
2023-01-09T01:03:46.615Z,95.26
2023-01-09T01:06:31.699Z,95.30
2023-01-09T01:08:58.217Z,95.32
2023-01-09T01:11:24.895Z,95.33
2023-01-09T01:13:51.549Z,95.34
2023-01-09T01:16:18.659Z,95.49
2023-01-09T01:18:45.446Z,95.46
2023-01-09T01:21:13.842Z,95.52
2023-01-09T01:23:40.423Z,95.45
2023-01-09T01:26:16.264Z,95.65
2023-01-09T01:28:43.484Z,95.67
2023-01-09T01:31:17.490Z,95.59
2023-01-09T01:33:43.993Z,95.61
2023-01-09T01:36:10.868Z,95.68
2023-01-09T01:38:37.466Z,95.67
2023-01-09T01:41:04.833Z,95.83
2023-01-09T01:44:02.031Z,95.69
2023-01-09T01:46:30.225Z,95.88
2023-01-09T01:49:11.504Z,95.68
2023-01-09T01:51:42.884Z,95.94
2023-01-09T01:54:17.955Z,95.90
2023-01-09T01:56:53.272Z,95.93
2023-01-09T01:59:31.944Z,96.04
2023-01-09T02:02:01.232Z,96.03
2023-01-09T02:04:30.159Z,96.21
2023-01-09T02:06:57.045Z,96.08
2023-01-09T02:09:25.161Z,96.04
2023-01-09T02:11:56.743Z,96.28
2023-01-09T02:14:26.223Z,96.13
2023-01-09T02:17:22.264Z,96.23
2023-01-09T02:20:07.344Z,96.27
2023-01-09T02:22:39.803Z,96.36
2023-01-09T02:25:31.800Z,96.53
2023-01-09T02:28:48.350Z,96.63
2023-01-09T02:31:21.011Z,96.67
2023-01-09T02:34:00.144Z,96.72
2023-01-09T02:36:38.691Z,96.82
2023-01-09T02:39:32.445Z,96.82
2023-01-09T02:42:15.015Z,96.90
2023-01-09T02:44:43.073Z,96.82
2023-01-09T02:47:15.296Z,96.89
2023-01-09T02:49:50.221Z,96.78
2023-01-09T02:52:35.459Z,96.85
2023-01-09T02:55:17.720Z,96.94
2023-01-09T02:58:05.220Z,96.79
2023-01-09T03:00:41.584Z,96.94
2023-01-09T03:03:17.644Z,96.78
2023-01-09T03:05:53.274Z,97.08
2023-01-09T03:08:22.999Z,96.96
2023-01-09T03:10:59.275Z,97.02
2023-01-09T03:13:32.209Z,97.28
2023-01-09T03:16:02.925Z,97.12
2023-01-09T03:18:31.751Z,97.15
2023-01-09T03:20:58.674Z,97.20
2023-01-09T03:23:26.235Z,97.06
2023-01-09T03:25:55.532Z,97.15
2023-01-09T03:28:31.086Z,97.18
2023-01-09T03:30:57.489Z,97.17
2023-01-09T03:33:23.973Z,97.09
2023-01-09T03:35:50.427Z,97.10
2023-01-09T03:38:16.932Z,97.20
2023-01-09T03:40:43.789Z,97.24
2023-01-09T03:43:10.386Z,97.36
2023-01-09T03:45:37.214Z,97.21
2023-01-09T03:48:03.819Z,97.41
2023-01-09T03:50:30.237Z,97.32
2023-01-09T03:52:56.728Z,97.30
2023-01-09T03:55:23.181Z,97.37
2023-01-09T03:57:49.813Z,97.28
2023-01-09T04:00:16.458Z,97.21
2023-01-09T04:02:43.263Z,97.33
2023-01-09T04:05:09.915Z,97.27
2023-01-09T04:07:36.316Z,97.22
2023-01-09T04:10:03.234Z,97.38
2023-01-09T04:12:29.742Z,97.23
2023-01-09T04:14:56.184Z,97.34
2023-01-09T04:17:22.672Z,97.08
2023-01-09T04:19:49.116Z,97.39
2023-01-09T04:22:15.493Z,97.24
2023-01-09T04:24:41.968Z,97.67
2023-01-09T04:27:08.575Z,97.18
2023-01-09T04:29:34.935Z,97.35
2023-01-09T04:32:01.373Z,97.53
2023-01-09T04:34:27.731Z,97.47
2023-01-09T04:36:54.825Z,97.33
2023-01-09T04:39:22.291Z,97.35
2023-01-09T04:41:51.777Z,97.47
2023-01-09T04:44:26.207Z,97.37
2023-01-09T04:46:53.583Z,97.51
2023-01-09T04:49:20.564Z,97.61
2023-01-09T04:51:47.688Z,97.54
2023-01-09T04:54:14.587Z,97.63
2023-01-09T04:56:40.984Z,97.56
2023-01-09T04:59:08.553Z,97.59
2023-01-09T05:01:35.415Z,97.67
2023-01-09T05:04:02.138Z,97.57
2023-01-09T05:06:28.869Z,97.75
2023-01-09T05:08:56.534Z,97.71
2023-01-09T05:11:25.402Z,97.71
2023-01-09T05:13:52.811Z,97.66
2023-01-09T05:16:19.948Z,97.58
2023-01-09T05:18:46.432Z,97.68
2023-01-09T05:21:13.941Z,97.71
2023-01-09T05:23:40.446Z,97.62
2023-01-09T05:26:06.924Z,97.58
2023-01-09T05:28:33.538Z,97.51
2023-01-09T05:30:59.934Z,97.87
2023-01-09T05:33:26.345Z,97.67
2023-01-09T05:35:52.703Z,97.90
2023-01-09T05:38:19.151Z,97.54
2023-01-09T05:40:45.572Z,97.84
2023-01-09T05:43:12.913Z,97.60
2023-01-09T05:45:39.407Z,97.59
2023-01-09T05:48:06.157Z,97.58
2023-01-09T05:50:32.604Z,97.68
2023-01-09T05:52:58.956Z,97.60
2023-01-09T05:55:25.317Z,97.51
2023-01-09T05:57:51.731Z,97.58
2023-01-09T06:00:18.990Z,97.29
2023-01-09T06:02:45.475Z,97.41
2023-01-09T06:05:12.094Z,97.48
2023-01-09T06:07:40.634Z,97.62
2023-01-09T06:10:12.592Z,97.55
2023-01-09T06:12:39.211Z,97.45
2023-01-09T06:15:08.683Z,97.59
2023-01-09T06:17:35.322Z,97.36
2023-01-09T06:20:01.788Z,97.44
2023-01-09T06:22:28.225Z,97.44
2023-01-09T06:24:54.620Z,97.50
2023-01-09T06:27:21.092Z,97.45
2023-01-09T06:29:47.563Z,97.63
2023-01-09T06:32:14.043Z,97.27
2023-01-09T06:34:40.543Z,97.45
2023-01-09T06:37:07.046Z,97.38
2023-01-09T06:39:33.522Z,97.36
2023-01-09T06:42:00.113Z,97.34
2023-01-09T06:44:26.493Z,97.34
2023-01-09T06:46:52.924Z,97.29
2023-01-09T06:49:23.542Z,97.32
2023-01-09T06:51:51.267Z,97.29
2023-01-09T06:54:19.350Z,97.43
2023-01-09T06:56:45.914Z,97.34
2023-01-09T06:59:12.821Z,97.37
2023-01-09T07:01:42.527Z,97.42
2023-01-09T07:04:11.840Z,97.20
2023-01-09T07:06:38.436Z,97.31
2023-01-09T07:09:06.102Z,97.37
2023-01-09T07:11:33.318Z,97.25
2023-01-09T07:13:59.752Z,97.24
2023-01-09T07:16:26.223Z,97.24
2023-01-09T07:18:52.731Z,97.29
2023-01-09T07:21:19.797Z,97.25
2023-01-09T07:23:46.797Z,97.10
2023-01-09T07:26:13.312Z,97.23
2023-01-09T07:28:39.653Z,97.19
2023-01-09T07:31:07.641Z,97.51
2023-01-09T07:33:35.376Z,97.37
2023-01-09T07:36:01.810Z,97.41
2023-01-09T07:38:28.277Z,97.12
2023-01-09T07:40:54.849Z,97.36
2023-01-09T07:43:21.324Z,97.31
2023-01-09T07:45:47.761Z,97.29
2023-01-09T07:48:14.287Z,97.36
2023-01-09T07:50:40.750Z,97.42
2023-01-09T07:53:09.383Z,97.53
2023-01-09T07:55:35.875Z,97.62
2023-01-09T07:58:02.402Z,97.51
2023-01-09T08:00:28.864Z,97.72
2023-01-09T08:02:55.428Z,97.65
2023-01-09T08:05:22.836Z,97.61
2023-01-09T08:07:51.281Z,97.35
2023-01-09T08:10:19.793Z,97.46
2023-01-09T08:12:47.691Z,97.44
2023-01-09T08:15:14.404Z,97.69
2023-01-09T08:17:43.006Z,97.69
2023-01-09T08:20:14.377Z,97.67
2023-01-09T08:22:49.735Z,97.54
2023-01-09T08:25:17.732Z,97.72
2023-01-09T08:27:44.694Z,97.50
2023-01-09T08:30:12.097Z,97.66
2023-01-09T08:32:39.105Z,97.51
2023-01-09T08:35:06.040Z,97.52
2023-01-09T08:37:32.508Z,97.28
2023-01-09T08:39:59.012Z,97.52
2023-01-09T08:42:44.373Z,97.30
2023-01-09T08:45:32.568Z,97.29
2023-01-09T08:47:59.068Z,97.43
2023-01-09T08:50:25.553Z,97.55
2023-01-09T08:52:52.015Z,97.41
2023-01-09T08:55:18.817Z,97.57
2023-01-09T08:57:53.483Z,97.78
2023-01-09T09:00:22.121Z,97.70
2023-01-09T09:02:56.364Z,97.41
2023-01-09T09:05:24.427Z,97.70
2023-01-09T09:07:54.652Z,97.98
2023-01-09T09:10:25.623Z,97.83
2023-01-09T09:12:54.374Z,97.85
2023-01-09T09:15:24.144Z,97.86
2023-01-09T09:17:56.006Z,97.91
2023-01-09T09:20:24.596Z,98.00
2023-01-09T09:22:51.348Z,97.95
2023-01-09T09:25:18.691Z,97.87
2023-01-09T09:27:45.462Z,98.14
2023-01-09T09:30:17.856Z,98.29
2023-01-09T09:32:44.735Z,98.20
2023-01-09T09:35:11.725Z,97.90
2023-01-09T09:37:38.476Z,98.07
2023-01-09T09:40:17.569Z,98.17
2023-01-09T09:43:43.223Z,98.18
2023-01-09T09:46:39.002Z,98.23
2023-01-09T09:49:35.537Z,97.96
2023-01-09T09:52:25.962Z,97.92
2023-01-09T09:54:52.952Z,98.01
2023-01-09T09:57:25.767Z,97.83
2023-01-09T09:59:53.383Z,98.07
2023-01-09T10:02:30.971Z,97.81
2023-01-09T10:05:05.203Z,97.76
2023-01-09T10:07:41.903Z,97.62
2023-01-09T10:10:34.228Z,97.42
2023-01-09T10:13:21.005Z,97.23
2023-01-09T10:16:04.149Z,97.29
2023-01-09T10:18:48.998Z,97.21
2023-01-09T10:21:43.683Z,97.04
2023-01-09T10:24:21.926Z,97.33
2023-01-09T10:26:51.678Z,97.54
2023-01-09T10:29:33.393Z,97.63
2023-01-09T10:32:12.146Z,97.36
2023-01-09T10:34:50.140Z,97.38
2023-01-09T10:37:23.520Z,97.32
2023-01-09T10:39:59.291Z,97.32
2023-01-09T10:42:36.534Z,96.94
2023-01-09T10:45:28.705Z,96.39
2023-01-09T10:48:03.275Z,96.16
2023-01-09T10:50:40.567Z,95.86
2023-01-09T10:53:27.790Z,94.40
2023-01-09T10:56:13.394Z,93.35
2023-01-09T10:58:39.825Z,92.90
2023-01-09T11:01:07.876Z,93.03
2023-01-09T11:03:34.339Z,93.22
2023-01-09T11:06:03.057Z,93.31
2023-01-09T11:08:40.204Z,93.26
2023-01-09T11:11:06.681Z,93.60
2023-01-09T11:13:35.158Z,93.65
2023-01-09T11:16:09.225Z,93.51
2023-01-09T11:18:40.882Z,93.18
2023-01-09T11:21:35.668Z,93.20
2023-01-09T11:24:22.405Z,92.77
2023-01-09T11:26:51.032Z,92.75
2023-01-09T11:29:20.154Z,92.66
2023-01-09T11:32:01.847Z,92.92
2023-01-09T11:34:31.855Z,92.77
2023-01-09T11:37:13.883Z,92.07
2023-01-09T11:39:47.901Z,92.15
2023-01-09T11:42:44.609Z,92.56
2023-01-09T11:45:16.310Z,92.56
2023-01-09T11:47:43.450Z,91.92
2023-01-09T11:50:26.359Z,92.11
2023-01-09T11:53:18.807Z,91.99
2023-01-09T11:55:46.985Z,91.91
2023-01-09T11:58:18.918Z,92.08
2023-01-09T12:01:00.217Z,92.08
2023-01-09T12:03:54.539Z,92.47
2023-01-09T12:06:38.727Z,92.18
2023-01-09T12:09:07.932Z,92.41
2023-01-09T12:12:08.242Z,92.60
2023-01-09T12:14:49.121Z,93.11
2023-01-09T12:17:40.999Z,93.35
2023-01-09T12:20:34.817Z,93.62
2023-01-09T12:23:01.352Z,93.55
2023-01-09T12:25:49.658Z,93.75
2023-01-09T12:28:22.140Z,93.49
2023-01-09T12:31:26.160Z,93.28
2023-01-09T12:34:11.672Z,93.46
2023-01-09T12:36:59.357Z,93.55
2023-01-09T12:39:52.522Z,93.65
2023-01-09T12:42:29.618Z,93.49
2023-01-09T12:45:34.485Z,93.68
2023-01-09T12:48:13.603Z,93.84
2023-01-09T12:51:00.604Z,93.89
2023-01-09T12:53:32.413Z,93.90
2023-01-09T12:56:06.813Z,93.95
2023-01-09T12:58:56.198Z,94.04
2023-01-09T13:01:30.482Z,93.82
2023-01-09T13:04:24.611Z,93.75
2023-01-09T13:07:18.668Z,93.44
2023-01-09T13:10:30.636Z,93.77
2023-01-09T13:13:00.288Z,93.53
2023-01-09T13:15:36.525Z,93.42
2023-01-09T13:18:15.586Z,93.56
2023-01-09T13:20:46.122Z,93.51
2023-01-09T13:23:26.661Z,93.64
2023-01-09T13:25:57.680Z,92.40
2023-01-09T13:28:47.294Z,92.65
2023-01-09T13:31:35.603Z,92.29
2023-01-09T13:34:06.563Z,91.85
2023-01-09T13:36:45.748Z,91.33
2023-01-09T13:39:21.457Z,91.27
2023-01-09T13:42:11.309Z,91.18
2023-01-09T13:44:37.921Z,90.42
2023-01-09T13:47:04.685Z,90.56
2023-01-09T13:49:53.775Z,90.00
2023-01-09T13:52:38.507Z,89.83
2023-01-09T13:55:17.552Z,89.91
2023-01-09T13:58:13.666Z,89.80
2023-01-09T14:00:44.489Z,89.97
2023-01-09T14:03:52.986Z,89.79
2023-01-09T14:06:19.767Z,89.58
2023-01-09T14:08:48.323Z,89.30
2023-01-09T14:11:19.978Z,89.68
2023-01-09T14:13:52.534Z,89.86
2023-01-09T14:16:24.906Z,89.61
2023-01-09T14:19:03.268Z,89.91
2023-01-09T14:21:45.820Z,90.04
2023-01-09T14:24:23.884Z,90.01
2023-01-09T14:26:56.667Z,89.83
2023-01-09T14:29:35.870Z,89.59
2023-01-09T14:32:20.621Z,89.44
2023-01-09T14:34:58.605Z,89.75
2023-01-09T14:37:28.564Z,89.81
2023-01-09T14:39:56.723Z,89.73
2023-01-09T14:42:27.318Z,89.55
2023-01-09T14:45:04.094Z,89.56
2023-01-09T14:47:41.773Z,89.72
2023-01-09T14:50:51.662Z,89.86
2023-01-09T14:53:21.105Z,89.79
2023-01-09T14:56:01.776Z,89.90
2023-01-09T14:58:35.724Z,89.87
2023-01-09T15:01:14.934Z,89.81
2023-01-09T15:03:58.826Z,89.60
2023-01-09T15:06:28.531Z,89.64
2023-01-09T15:09:20.961Z,89.87
2023-01-09T15:11:47.751Z,89.98
2023-01-09T15:14:40.534Z,89.91
2023-01-09T15:17:28.479Z,90.18
2023-01-09T15:19:56.464Z,89.95
2023-01-09T15:22:25.640Z,89.79
2023-01-09T15:24:52.317Z,89.66
2023-01-09T15:27:24.800Z,89.66
2023-01-09T15:29:52.555Z,89.58
2023-01-09T15:32:24.956Z,89.49
2023-01-09T15:34:52.442Z,89.48
2023-01-09T15:37:40.339Z,89.44
2023-01-09T15:40:13.492Z,89.33
2023-01-09T15:42:57.154Z,89.43
2023-01-09T15:45:29.329Z,89.57
2023-01-09T15:48:24.572Z,89.61
2023-01-09T15:51:13.305Z,89.85
2023-01-09T15:53:41.641Z,90.19
2023-01-09T15:56:24.883Z,90.14
2023-01-09T15:58:54.923Z,90.10
2023-01-09T16:01:33.738Z,90.22
2023-01-09T16:04:17.751Z,90.19
2023-01-09T16:06:48.070Z,90.60
2023-01-09T16:09:21.931Z,90.77
2023-01-09T16:11:55.440Z,91.05
2023-01-09T16:14:47.622Z,91.34
2023-01-09T16:17:16.922Z,91.39
2023-01-09T16:19:55.296Z,91.66
2023-01-09T16:22:33.435Z,91.62
2023-01-09T16:25:02.281Z,91.85
2023-01-09T16:27:32.057Z,91.93
2023-01-09T16:30:07.387Z,92.09
2023-01-09T16:32:47.445Z,91.91
2023-01-09T16:35:20.143Z,92.35
2023-01-09T16:37:47.129Z,92.36
2023-01-09T16:40:16.932Z,92.36
2023-01-09T16:43:03.017Z,92.59
2023-01-09T16:45:33.536Z,92.68
2023-01-09T16:48:10.204Z,92.76
2023-01-09T16:50:36.754Z,92.96
2023-01-09T16:53:12.852Z,92.99
2023-01-09T16:55:39.350Z,92.90
2023-01-09T16:58:05.915Z,93.13
2023-01-09T17:00:32.511Z,93.21
2023-01-09T17:03:00.667Z,93.33
2023-01-09T17:05:27.036Z,93.44
2023-01-09T17:07:54.610Z,93.84
2023-01-09T17:10:22.756Z,93.80
2023-01-09T17:12:49.319Z,93.94
2023-01-09T17:15:16.274Z,93.87
2023-01-09T17:17:42.871Z,94.19
2023-01-09T17:20:17.995Z,94.11
2023-01-09T17:22:44.457Z,94.32
2023-01-09T17:25:35.177Z,94.71
2023-01-09T17:28:21.411Z,94.46
2023-01-09T17:30:47.881Z,94.35
2023-01-09T17:33:16.939Z,94.53
2023-01-09T17:35:43.883Z,94.33
2023-01-09T17:38:14.271Z,94.40
2023-01-09T17:40:41.165Z,94.36
2023-01-09T17:43:07.611Z,94.55
2023-01-09T17:45:34.104Z,94.80
2023-01-09T17:48:00.517Z,94.70
2023-01-09T17:50:29.717Z,94.81
2023-01-09T17:52:56.110Z,95.12
2023-01-09T17:55:22.514Z,95.13
2023-01-09T17:57:49.510Z,95.03
2023-01-09T18:00:39.571Z,95.28
2023-01-09T18:03:07.607Z,95.40
2023-01-09T18:05:34.442Z,95.27
2023-01-09T18:08:01.034Z,95.34
2023-01-09T18:10:27.561Z,95.39
2023-01-09T18:12:55.789Z,95.54
2023-01-09T18:15:24.410Z,95.41
2023-01-09T18:17:52.256Z,95.42
2023-01-09T18:20:19.047Z,95.52
2023-01-09T18:22:45.450Z,95.52
2023-01-09T18:25:11.994Z,95.62
2023-01-09T18:27:38.641Z,95.60
2023-01-09T18:30:06.241Z,95.65
2023-01-09T18:32:33.081Z,95.70
2023-01-09T18:34:59.443Z,95.61
2023-01-09T18:37:25.846Z,95.45
2023-01-09T18:39:52.275Z,95.58
2023-01-09T18:42:19.040Z,95.41
2023-01-09T18:44:45.623Z,95.30
2023-01-09T18:47:12.424Z,95.37
2023-01-09T18:49:38.849Z,95.30
2023-01-09T18:52:07.461Z,95.35
2023-01-09T18:54:34.217Z,95.23
2023-01-09T18:57:00.761Z,95.17
2023-01-09T18:59:27.205Z,95.18
2023-01-09T19:01:53.586Z,95.25
2023-01-09T19:04:20.060Z,95.21
2023-01-09T19:06:46.483Z,95.36
2023-01-09T19:09:13.029Z,95.35
2023-01-09T19:11:39.842Z,95.38
2023-01-09T19:14:06.328Z,95.22
2023-01-09T19:16:32.947Z,95.37
2023-01-09T19:19:01.925Z,95.27
2023-01-09T19:21:29.739Z,95.26
2023-01-09T19:23:56.174Z,95.08
2023-01-09T19:26:24.562Z,95.04
2023-01-09T19:28:54.897Z,95.05
2023-01-09T19:31:24.904Z,94.89
2023-01-09T19:33:52.474Z,95.21
2023-01-09T19:36:18.999Z,94.80
2023-01-09T19:38:45.561Z,94.99
2023-01-09T19:41:19.164Z,95.00
2023-01-09T19:43:46.388Z,94.88
2023-01-09T19:46:15.458Z,95.18
2023-01-09T19:48:44.823Z,95.24
2023-01-09T19:51:12.658Z,95.39
2023-01-09T19:53:39.509Z,95.31
2023-01-09T19:56:28.349Z,95.18
2023-01-09T19:58:58.198Z,95.33
2023-01-09T20:01:30.127Z,95.48
2023-01-09T20:03:58.614Z,95.42
2023-01-09T20:06:26.348Z,95.53
2023-01-09T20:08:55.552Z,95.66
2023-01-09T20:11:23.385Z,95.72
2023-01-09T20:13:50.187Z,95.67
2023-01-09T20:16:22.377Z,95.93
2023-01-09T20:18:48.884Z,95.74
2023-01-09T20:21:22.167Z,95.67
2023-01-09T20:23:49.772Z,95.82
2023-01-09T20:26:17.622Z,95.64
2023-01-09T20:28:44.926Z,95.40
2023-01-09T20:31:13.259Z,95.66
2023-01-09T20:33:39.860Z,95.68
2023-01-09T20:36:06.613Z,95.45
2023-01-09T20:38:33.199Z,95.66
2023-01-09T20:41:11.134Z,95.77
2023-01-09T20:43:37.734Z,95.69
2023-01-09T20:46:04.658Z,95.35
2023-01-09T20:48:31.293Z,95.16
2023-01-09T20:51:04.447Z,95.21
2023-01-09T20:53:30.950Z,94.89
2023-01-09T20:56:06.273Z,94.96
2023-01-09T20:58:33.639Z,95.03
2023-01-09T21:01:08.510Z,95.17
2023-01-09T21:03:35.334Z,94.93
2023-01-09T21:06:09.536Z,94.92
2023-01-09T21:08:36.671Z,95.03
2023-01-09T21:11:04.831Z,95.11
2023-01-09T21:13:31.798Z,95.18
2023-01-09T21:16:10.215Z,95.07
2023-01-09T21:18:37.520Z,94.98
2023-01-09T21:21:05.727Z,95.11
2023-01-09T21:23:33.120Z,94.93
2023-01-09T21:26:00.103Z,95.06
2023-01-09T21:28:27.820Z,95.04
2023-01-09T21:30:54.412Z,94.88
2023-01-09T21:33:23.680Z,94.74
2023-01-09T21:35:58.132Z,94.53
2023-01-09T21:38:26.214Z,94.44
2023-01-09T21:40:53.900Z,94.81
2023-01-09T21:43:47.333Z,94.35
2023-01-09T21:46:37.239Z,94.50
2023-01-09T21:49:04.843Z,94.25
2023-01-09T21:51:31.629Z,94.30
2023-01-09T21:53:58.043Z,94.06
2023-01-09T21:56:24.449Z,94.19
2023-01-09T21:58:50.970Z,94.16
2023-01-09T22:01:19.952Z,94.19
2023-01-09T22:03:46.457Z,94.40
2023-01-09T22:06:12.965Z,94.02
2023-01-09T22:08:39.328Z,94.07
2023-01-09T22:11:05.749Z,93.98
2023-01-09T22:13:32.238Z,94.01
2023-01-09T22:16:07.160Z,94.02
2023-01-09T22:18:35.313Z,93.83
2023-01-09T22:21:02.747Z,94.17
2023-01-09T22:23:30.091Z,94.03
2023-01-09T22:25:56.695Z,94.10
2023-01-09T22:28:23.972Z,94.29
2023-01-09T22:30:50.384Z,93.93
2023-01-09T22:33:18.550Z,94.05
2023-01-09T22:35:44.982Z,94.14
2023-01-09T22:38:12.070Z,94.28
2023-01-09T22:40:39.109Z,94.32
2023-01-09T22:43:06.020Z,94.23
2023-01-09T22:45:32.987Z,94.42
2023-01-09T22:47:59.499Z,94.25
2023-01-09T22:50:25.993Z,94.12
2023-01-09T22:52:55.617Z,94.38
2023-01-09T22:55:22.216Z,94.57
2023-01-09T22:57:48.668Z,94.57
2023-01-09T23:00:15.557Z,94.54
2023-01-09T23:02:42.070Z,94.63
2023-01-09T23:05:08.749Z,94.64
2023-01-09T23:07:37.328Z,94.71
2023-01-09T23:10:05.627Z,94.70
2023-01-09T23:12:32.757Z,94.66
2023-01-09T23:14:59.195Z,94.71
2023-01-09T23:17:25.652Z,94.65
2023-01-09T23:19:52.206Z,94.68
2023-01-09T23:22:18.944Z,94.62
2023-01-09T23:24:45.404Z,94.56
2023-01-09T23:27:11.864Z,94.58
2023-01-09T23:29:39.693Z,94.57
2023-01-09T23:32:06.479Z,94.71
2023-01-09T23:34:33.756Z,94.43
2023-01-09T23:37:00.775Z,94.49
2023-01-09T23:39:27.403Z,94.47
2023-01-09T23:42:12.274Z,94.80
2023-01-09T23:44:38.805Z,94.46
2023-01-09T23:47:05.291Z,94.57
2023-01-09T23:49:31.767Z,94.51
2023-01-09T23:51:58.249Z,94.45
2023-01-09T23:54:24.991Z,94.43
2023-01-09T23:56:53.232Z,94.16
2023-01-09T23:59:19.794Z,94.40
